sensor_id;sensor_type;location;lat;lon;timestamp;temperature;humidity
21417;DHT22;10869;52.238;10.716;2022-09-13T03:02:30;17.20;99.90
21417;DHT22;10869;52.238;10.716;2022-09-13T03:04:58;17.30;99.90
21417;DHT22;10869;52.238;10.716;2022-09-13T03:07:24;17.30;99.90
21417;DHT22;10869;52.238;10.716;2022-09-13T03:09:54;17.30;99.90
21417;DHT22;10869;52.238;10.716;2022-09-13T03:12:51;17.30;99.90
21417;DHT22;10869;52.238;10.716;2022-09-13T03:28:52;17.40;99.90
21417;DHT22;10869;52.238;10.716;2022-09-13T03:31:35;17.40;99.90
21417;DHT22;10869;52.238;10.716;2022-09-13T03:40:46;17.30;99.90
21417;DHT22;10869;52.238;10.716;2022-09-13T03:46:21;17.20;99.90
21417;DHT22;10869;52.238;10.716;2022-09-13T03:48:49;17.10;99.90
21417;DHT22;10869;52.238;10.716;2022-09-13T03:51:16;16.90;99.90
21417;DHT22;10869;52.238;10.716;2022-09-13T03:53:46;16.80;99.90
21417;DHT22;10869;52.238;10.716;2022-09-13T03:56:18;16.60;99.90
21417;DHT22;10869;52.238;10.716;2022-09-13T03:58:45;16.40;99.90
21417;DHT22;10869;52.238;10.716;2022-09-13T04:01:11;16.30;99.90
21417;DHT22;10869;52.238;10.716;2022-09-13T04:03:38;16.20;99.90
21417;DHT22;10869;52.238;10.716;2022-09-13T04:06:04;16.00;99.90
21417;DHT22;10869;52.238;10.716;2022-09-13T04:08:31;15.90;99.90
21417;DHT22;10869;52.238;10.716;2022-09-13T04:10:57;15.70;99.90
21417;DHT22;10869;52.238;10.716;2022-09-13T04:13:23;15.60;99.90
21417;DHT22;10869;52.238;10.716;2022-09-13T04:15:49;15.50;99.90
21417;DHT22;10869;52.238;10.716;2022-09-13T04:18:16;15.50;99.90
21417;DHT22;10869;52.238;10.716;2022-09-13T04:20:42;15.40;99.90
21417;DHT22;10869;52.238;10.716;2022-09-13T04:23:07;15.40;99.90
21417;DHT22;10869;52.238;10.716;2022-09-13T04:25:36;15.30;99.90
21417;DHT22;10869;52.238;10.716;2022-09-13T04:28:02;15.20;99.90
21417;DHT22;10869;52.238;10.716;2022-09-13T04:30:28;15.20;99.90
21417;DHT22;10869;52.238;10.716;2022-09-13T04:32:54;15.20;99.90
21417;DHT22;10869;52.238;10.716;2022-09-13T04:35:23;15.10;99.90
21417;DHT22;10869;52.238;10.716;2022-09-13T04:37:48;15.10;99.90
21417;DHT22;10869;52.238;10.716;2022-09-13T04:40:14;15.10;99.90
21417;DHT22;10869;52.238;10.716;2022-09-13T04:42:41;15.00;99.90
21417;DHT22;10869;52.238;10.716;2022-09-13T04:45:08;15.00;99.90
21417;DHT22;10869;52.238;10.716;2022-09-13T04:47:35;15.00;99.90
21417;DHT22;10869;52.238;10.716;2022-09-13T04:50:01;15.00;99.90
21417;DHT22;10869;52.238;10.716;2022-09-13T04:52:26;15.00;99.90
21417;DHT22;10869;52.238;10.716;2022-09-13T04:54:52;15.00;99.90
21417;DHT22;10869;52.238;10.716;2022-09-13T04:57:19;15.00;99.90
21417;DHT22;10869;52.238;10.716;2022-09-13T04:59:44;15.00;99.90
21417;DHT22;10869;52.238;10.716;2022-09-13T05:02:10;15.00;99.90
21417;DHT22;10869;52.238;10.716;2022-09-13T05:04:36;15.00;99.90
21417;DHT22;10869;52.238;10.716;2022-09-13T05:07:03;15.00;99.90
21417;DHT22;10869;52.238;10.716;2022-09-13T05:09:29;15.00;99.90
21417;DHT22;10869;52.238;10.716;2022-09-13T05:11:55;15.00;99.90
21417;DHT22;10869;52.238;10.716;2022-09-13T05:14:20;15.00;99.90
21417;DHT22;10869;52.238;10.716;2022-09-13T05:16:46;15.00;99.90
21417;DHT22;10869;52.238;10.716;2022-09-13T05:19:12;15.10;99.90
21417;DHT22;10869;52.238;10.716;2022-09-13T05:21:38;15.10;99.90
21417;DHT22;10869;52.238;10.716;2022-09-13T05:24:04;15.10;99.90
21417;DHT22;10869;52.238;10.716;2022-09-13T05:26:30;15.10;99.90
21417;DHT22;10869;52.238;10.716;2022-09-13T05:28:59;15.10;99.90
21417;DHT22;10869;52.238;10.716;2022-09-13T05:31:28;15.10;99.90
21417;DHT22;10869;52.238;10.716;2022-09-13T05:34:00;15.10;99.90
21417;DHT22;10869;52.238;10.716;2022-09-13T05:36:26;15.10;99.90
21417;DHT22;10869;52.238;10.716;2022-09-13T05:38:53;15.20;99.90
21417;DHT22;10869;52.238;10.716;2022-09-13T05:41:19;15.20;99.90
21417;DHT22;10869;52.238;10.716;2022-09-13T05:43:45;15.20;99.90
21417;DHT22;10869;52.238;10.716;2022-09-13T05:46:14;15.30;99.90
21417;DHT22;10869;52.238;10.716;2022-09-13T05:48:41;15.30;99.90
21417;DHT22;10869;52.238;10.716;2022-09-13T05:51:11;15.30;99.90
21417;DHT22;10869;52.238;10.716;2022-09-13T05:57:02;15.40;99.90
21417;DHT22;10869;52.238;10.716;2022-09-13T05:59:28;15.40;99.90
21417;DHT22;10869;52.238;10.716;2022-09-13T06:01:54;15.40;99.90
21417;DHT22;10869;52.238;10.716;2022-09-13T06:04:20;15.40;99.90
21417;DHT22;10869;52.238;10.716;2022-09-13T06:06:45;15.50;99.90
21417;DHT22;10869;52.238;10.716;2022-09-13T06:09:11;15.60;99.90
21417;DHT22;10869;52.238;10.716;2022-09-13T06:11:37;15.60;99.90
21417;DHT22;10869;52.238;10.716;2022-09-13T06:14:03;15.70;99.90
21417;DHT22;10869;52.238;10.716;2022-09-13T06:16:29;15.70;99.90
21417;DHT22;10869;52.238;10.716;2022-09-13T06:18:56;15.70;99.90
21417;DHT22;10869;52.238;10.716;2022-09-13T06:24:44;15.80;99.90
21417;DHT22;10869;52.238;10.716;2022-09-13T06:27:10;15.90;99.90
21417;DHT22;10869;52.238;10.716;2022-09-13T06:29:36;15.90;99.90
21417;DHT22;10869;52.238;10.716;2022-09-13T06:32:02;15.90;99.90
21417;DHT22;10869;52.238;10.716;2022-09-13T06:34:29;15.90;99.90
21417;DHT22;10869;52.238;10.716;2022-09-13T06:36:54;16.00;99.90
21417;DHT22;10869;52.238;10.716;2022-09-13T06:42:42;16.00;99.90
21417;DHT22;10869;52.238;10.716;2022-09-13T06:45:08;16.00;99.90
21417;DHT22;10869;52.238;10.716;2022-09-13T06:51:06;16.00;99.90
21417;DHT22;10869;52.238;10.716;2022-09-13T06:56:54;16.00;99.90
21417;DHT22;10869;52.238;10.716;2022-09-13T06:59:20;16.00;99.90
21417;DHT22;10869;52.238;10.716;2022-09-13T07:01:46;16.10;99.90
21417;DHT22;10869;52.238;10.716;2022-09-13T07:07:33;16.10;99.90
21417;DHT22;10869;52.238;10.716;2022-09-13T07:09:59;16.20;99.90
21417;DHT22;10869;52.238;10.716;2022-09-13T07:12:25;16.20;99.90
21417;DHT22;10869;52.238;10.716;2022-09-13T07:18:13;16.30;99.90
21417;DHT22;10869;52.238;10.716;2022-09-13T07:20:39;16.40;99.90
21417;DHT22;10869;52.238;10.716;2022-09-13T07:26:27;16.60;99.90
21417;DHT22;10869;52.238;10.716;2022-09-13T07:28:55;16.80;99.90
21417;DHT22;10869;52.238;10.716;2022-09-13T07:31:26;16.80;99.90
21417;DHT22;10869;52.238;10.716;2022-09-13T07:33:55;16.90;99.90
21417;DHT22;10869;52.238;10.716;2022-09-13T07:36:26;17.00;99.90
21417;DHT22;10869;52.238;10.716;2022-09-13T07:38:52;17.10;99.90
21417;DHT22;10869;52.238;10.716;2022-09-13T07:41:23;17.10;99.90
21417;DHT22;10869;52.238;10.716;2022-09-13T07:43:50;17.20;99.90
21417;DHT22;10869;52.238;10.716;2022-09-13T07:46:21;17.30;99.90
21417;DHT22;10869;52.238;10.716;2022-09-13T07:48:48;17.40;99.90
21417;DHT22;10869;52.238;10.716;2022-09-13T07:51:19;17.50;99.90
21417;DHT22;10869;52.238;10.716;2022-09-13T07:53:49;17.60;99.90
21417;DHT22;10869;52.238;10.716;2022-09-13T07:56:20;17.60;99.90
21417;DHT22;10869;52.238;10.716;2022-09-13T07:58:48;17.60;99.90
21417;DHT22;10869;52.238;10.716;2022-09-13T08:04:36;17.70;99.90
21417;DHT22;10869;52.238;10.716;2022-09-13T08:07:05;17.70;99.90
21417;DHT22;10869;52.238;10.716;2022-09-13T08:12:52;17.70;99.90
21417;DHT22;10869;52.238;10.716;2022-09-13T08:18:51;17.90;99.90
21417;DHT22;10869;52.238;10.716;2022-09-13T08:24:39;17.90;99.90
21417;DHT22;10869;52.238;10.716;2022-09-13T08:27:04;17.90;99.90
21417;DHT22;10869;52.238;10.716;2022-09-13T08:32:52;17.90;99.90
21417;DHT22;10869;52.238;10.716;2022-09-13T08:35:18;17.90;99.90
21417;DHT22;10869;52.238;10.716;2022-09-13T08:37:44;18.00;99.90
21417;DHT22;10869;52.238;10.716;2022-09-13T08:40:19;18.10;99.90
21417;DHT22;10869;52.238;10.716;2022-09-13T08:45:14;18.30;99.90
21417;DHT22;10869;52.238;10.716;2022-09-13T08:51:05;18.50;99.90
21417;DHT22;10869;52.238;10.716;2022-09-13T09:00:01;18.90;99.90
21417;DHT22;10869;52.238;10.716;2022-09-13T09:02:47;18.80;99.90
21417;DHT22;10869;52.238;10.716;2022-09-13T09:08:48;18.70;99.90
21417;DHT22;10869;52.238;10.716;2022-09-13T09:14:50;18.50;99.90
21417;DHT22;10869;52.238;10.716;2022-09-13T09:17:33;18.40;99.90
21417;DHT22;10869;52.238;10.716;2022-09-13T09:23:38;18.30;99.90
21417;DHT22;10869;52.238;10.716;2022-09-13T09:32:15;18.40;99.90
21417;DHT22;10869;52.238;10.716;2022-09-13T09:37:30;18.70;99.90
21417;DHT22;10869;52.238;10.716;2022-09-13T09:40:04;18.80;99.90
21417;DHT22;10869;52.238;10.716;2022-09-13T09:42:45;18.90;99.90
21417;DHT22;10869;52.238;10.716;2022-09-13T09:45:25;18.90;99.90
21417;DHT22;10869;52.238;10.716;2022-09-13T09:47:51;18.90;99.90
21417;DHT22;10869;52.238;10.716;2022-09-13T09:50:22;19.00;99.90
21417;DHT22;10869;52.238;10.716;2022-09-13T09:53:09;19.10;99.90
21417;DHT22;10869;52.238;10.716;2022-09-13T09:56:20;19.40;99.90
21417;DHT22;10869;52.238;10.716;2022-09-13T09:58:47;19.70;99.90
21417;DHT22;10869;52.238;10.716;2022-09-13T10:06:44;20.40;99.90
21417;DHT22;10869;52.238;10.716;2022-09-13T10:09:15;20.40;99.90
21417;DHT22;10869;52.238;10.716;2022-09-13T10:11:58;20.20;99.90
21417;DHT22;10869;52.238;10.716;2022-09-13T10:14:35;20.20;99.90
21417;DHT22;10869;52.238;10.716;2022-09-13T10:20:23;20.00;99.90
21417;DHT22;10869;52.238;10.716;2022-09-13T10:26:17;19.80;99.90
21417;DHT22;10869;52.238;10.716;2022-09-13T10:31:20;19.60;99.90
21417;DHT22;10869;52.238;10.716;2022-09-13T10:34:06;19.60;99.90
21417;DHT22;10869;52.238;10.716;2022-09-13T10:36:48;19.60;99.90
21417;DHT22;10869;52.238;10.716;2022-09-13T10:42:38;19.70;99.90
21417;DHT22;10869;52.238;10.716;2022-09-13T10:45:04;19.70;99.90
21417;DHT22;10869;52.238;10.716;2022-09-13T10:51:04;19.70;99.90
21417;DHT22;10869;52.238;10.716;2022-09-13T10:53:38;19.80;99.90
21417;DHT22;10869;52.238;10.716;2022-09-13T10:56:25;19.80;99.90
21417;DHT22;10869;52.238;10.716;2022-09-13T11:30:32;19.60;99.90
21417;DHT22;10869;52.238;10.716;2022-09-13T11:38:33;19.60;99.90
21417;DHT22;10869;52.238;10.716;2022-09-13T11:46:41;19.60;99.90
21417;DHT22;10869;52.238;10.716;2022-09-13T11:54:52;19.70;99.90
21417;DHT22;10869;52.238;10.716;2022-09-13T11:57:24;19.80;99.90
21417;DHT22;10869;52.238;10.716;2022-09-13T12:03:32;19.80;99.90
21417;DHT22;10869;52.238;10.716;2022-09-13T12:08:35;19.90;99.90
21417;DHT22;10869;52.238;10.716;2022-09-13T12:11:20;20.20;99.90
21417;DHT22;10869;52.238;10.716;2022-09-13T12:14:11;20.40;99.90
21417;DHT22;10869;52.238;10.716;2022-09-13T12:16:48;20.30;99.90
21417;DHT22;10869;52.238;10.716;2022-09-13T12:19:21;20.30;99.90
21417;DHT22;10869;52.238;10.716;2022-09-13T12:21:50;20.20;99.90
21417;DHT22;10869;52.238;10.716;2022-09-13T12:24:31;20.30;99.90
21417;DHT22;10869;52.238;10.716;2022-09-13T12:27:03;20.20;99.90
21417;DHT22;10869;52.238;10.716;2022-09-13T12:29:39;20.20;99.90
21417;DHT22;10869;52.238;10.716;2022-09-13T12:32:09;20.20;99.90
21417;DHT22;10869;52.238;10.716;2022-09-13T12:50:05;19.70;99.90
21417;DHT22;10869;52.238;10.716;2022-09-13T12:58:34;19.50;99.90
21417;DHT22;10869;52.238;10.716;2022-09-13T13:01:11;19.50;99.90
21417;DHT22;10869;52.238;10.716;2022-09-13T13:03:55;19.60;99.90
21417;DHT22;10869;52.238;10.716;2022-09-13T13:06:35;19.60;99.90
21417;DHT22;10869;52.238;10.716;2022-09-13T13:11:57;19.80;99.90
21417;DHT22;10869;52.238;10.716;2022-09-13T13:14:29;19.80;99.90
21417;DHT22;10869;52.238;10.716;2022-09-13T13:43:29;19.80;99.90
21417;DHT22;10869;52.238;10.716;2022-09-13T13:45:57;19.90;99.90
21417;DHT22;10869;52.238;10.716;2022-09-13T13:48:40;19.90;99.90
21417;DHT22;10869;52.238;10.716;2022-09-13T13:51:37;19.90;99.90
21417;DHT22;10869;52.238;10.716;2022-09-13T13:54:29;19.80;99.90
21417;DHT22;10869;52.238;10.716;2022-09-13T13:56:56;19.80;99.90
21417;DHT22;10869;52.238;10.716;2022-09-13T13:59:26;19.80;99.90
21417;DHT22;10869;52.238;10.716;2022-09-13T14:01:55;19.70;99.90
21417;DHT22;10869;52.238;10.716;2022-09-13T14:07:23;19.60;99.90
21417;DHT22;10869;52.238;10.716;2022-09-13T14:21:26;19.60;99.90
21417;DHT22;10869;52.238;10.716;2022-09-13T14:24:19;19.80;99.90
21417;DHT22;10869;52.238;10.716;2022-09-13T14:26:49;20.00;99.90
21417;DHT22;10869;52.238;10.716;2022-09-13T14:29:18;20.10;99.90
21417;DHT22;10869;52.238;10.716;2022-09-13T14:31:46;20.30;99.90
21417;DHT22;10869;52.238;10.716;2022-09-13T14:35:20;20.40;99.90
21417;DHT22;10869;52.238;10.716;2022-09-13T14:37:17;20.60;99.90
21417;DHT22;10869;52.238;10.716;2022-09-13T14:40:27;20.70;99.90
21417;DHT22;10869;52.238;10.716;2022-09-13T14:42:49;20.80;99.90
21417;DHT22;10869;52.238;10.716;2022-09-13T14:47:53;20.90;99.90
21417;DHT22;10869;52.238;10.716;2022-09-13T14:50:24;20.90;99.90
21417;DHT22;10869;52.238;10.716;2022-09-13T14:52:54;20.80;99.90
21417;DHT22;10869;52.238;10.716;2022-09-13T14:55:51;20.80;99.90
21417;DHT22;10869;52.238;10.716;2022-09-13T14:58:25;20.70;99.90
21417;DHT22;10869;52.238;10.716;2022-09-13T15:01:01;20.60;99.90
21417;DHT22;10869;52.238;10.716;2022-09-13T15:03:28;20.40;99.90
21417;DHT22;10869;52.238;10.716;2022-09-13T15:12:27;20.20;99.90
21417;DHT22;10869;52.238;10.716;2022-09-13T15:15:54;20.30;99.90
21417;DHT22;10869;52.238;10.716;2022-09-13T15:18:02;20.50;99.90
21417;DHT22;10869;52.238;10.716;2022-09-13T15:23:34;20.80;99.90
21417;DHT22;10869;52.238;10.716;2022-09-13T15:26:04;21.00;99.90
21417;DHT22;10869;52.238;10.716;2022-09-13T15:31:18;20.90;99.90
21417;DHT22;10869;52.238;10.716;2022-09-13T15:33:44;20.70;99.90
21417;DHT22;10869;52.238;10.716;2022-09-13T15:38:58;20.60;99.90
21417;DHT22;10869;52.238;10.716;2022-09-13T15:41:28;20.60;99.90
21417;DHT22;10869;52.238;10.716;2022-09-13T15:43:56;20.60;99.90
21417;DHT22;10869;52.238;10.716;2022-09-13T15:46:22;20.60;99.90
21417;DHT22;10869;52.238;10.716;2022-09-13T15:48:55;20.60;99.90
21417;DHT22;10869;52.238;10.716;2022-09-13T15:51:21;20.50;99.90
21417;DHT22;10869;52.238;10.716;2022-09-13T15:53:48;20.40;99.90
21417;DHT22;10869;52.238;10.716;2022-09-13T15:59:20;20.20;99.90
21417;DHT22;10869;52.238;10.716;2022-09-13T16:01:48;20.10;99.90
21417;DHT22;10869;52.238;10.716;2022-09-13T16:04:17;19.90;99.90
21417;DHT22;10869;52.238;10.716;2022-09-13T16:06:44;19.90;99.90
21417;DHT22;10869;52.238;10.716;2022-09-13T16:09:20;19.80;99.90
21417;DHT22;10869;52.238;10.716;2022-09-13T16:11:47;19.80;99.90
21417;DHT22;10869;52.238;10.716;2022-09-13T16:14:13;19.80;99.90
21417;DHT22;10869;52.238;10.716;2022-09-13T16:20:02;19.80;99.90
21417;DHT22;10869;52.238;10.716;2022-09-13T16:25:54;19.80;99.90
21417;DHT22;10869;52.238;10.716;2022-09-13T16:28:20;19.80;99.90
21417;DHT22;10869;52.238;10.716;2022-09-13T16:30:46;19.70;99.90
21417;DHT22;10869;52.238;10.716;2022-09-13T16:33:12;19.70;99.90
21417;DHT22;10869;52.238;10.716;2022-09-13T16:35:39;19.70;99.90
21417;DHT22;10869;52.238;10.716;2022-09-13T16:38:08;19.60;99.90
21417;DHT22;10869;52.238;10.716;2022-09-13T16:43:57;19.60;99.90
21417;DHT22;10869;52.238;10.716;2022-09-13T16:49:44;19.60;99.90
21417;DHT22;10869;52.238;10.716;2022-09-13T16:52:10;19.50;99.90
21417;DHT22;10869;52.238;10.716;2022-09-13T16:54:36;19.50;99.90
21417;DHT22;10869;52.238;10.716;2022-09-13T17:00:24;19.30;99.90
21417;DHT22;10869;52.238;10.716;2022-09-13T17:02:54;19.30;99.90
21417;DHT22;10869;52.238;10.716;2022-09-13T17:05:21;19.20;99.90
21417;DHT22;10869;52.238;10.716;2022-09-13T17:07:47;19.10;99.90
21417;DHT22;10869;52.238;10.716;2022-09-13T17:13:36;18.90;99.90
21417;DHT22;10869;52.238;10.716;2022-09-13T17:16:02;18.80;99.90
21417;DHT22;10869;52.238;10.716;2022-09-13T17:18:28;18.70;99.90
21417;DHT22;10869;52.238;10.716;2022-09-13T17:20:54;18.60;99.90
21417;DHT22;10869;52.238;10.716;2022-09-13T17:23:20;18.60;99.90
21417;DHT22;10869;52.238;10.716;2022-09-13T17:25:47;18.50;99.90
21417;DHT22;10869;52.238;10.716;2022-09-13T17:28:14;18.40;99.90
21417;DHT22;10869;52.238;10.716;2022-09-13T17:30:40;18.30;99.90
21417;DHT22;10869;52.238;10.716;2022-09-13T17:33:07;18.10;99.90
21417;DHT22;10869;52.238;10.716;2022-09-13T17:35:34;18.10;99.90
21417;DHT22;10869;52.238;10.716;2022-09-13T17:38:00;18.00;99.90
21417;DHT22;10869;52.238;10.716;2022-09-13T17:40:28;17.90;99.90
21417;DHT22;10869;52.238;10.716;2022-09-13T17:42:54;17.80;99.90
21417;DHT22;10869;52.238;10.716;2022-09-13T17:45:20;17.80;99.90
21417;DHT22;10869;52.238;10.716;2022-09-13T17:47:47;17.70;99.90
21417;DHT22;10869;52.238;10.716;2022-09-13T17:50:13;17.60;99.90
21417;DHT22;10869;52.238;10.716;2022-09-13T17:52:39;17.50;99.90
21417;DHT22;10869;52.238;10.716;2022-09-13T17:55:05;17.50;99.90
21417;DHT22;10869;52.238;10.716;2022-09-13T17:57:31;17.50;99.90
21417;DHT22;10869;52.238;10.716;2022-09-13T18:03:34;17.30;99.90
21417;DHT22;10869;52.238;10.716;2022-09-13T18:06:06;17.20;99.90
21417;DHT22;10869;52.238;10.716;2022-09-13T18:08:36;17.20;99.90
21417;DHT22;10869;52.238;10.716;2022-09-13T18:17:49;17.00;99.90
21417;DHT22;10869;52.238;10.716;2022-09-13T18:20:15;16.90;99.90
21417;DHT22;10869;52.238;10.716;2022-09-13T18:22:41;16.80;99.90
21417;DHT22;10869;52.238;10.716;2022-09-13T18:25:07;16.80;99.90
21417;DHT22;10869;52.238;10.716;2022-09-13T18:27:32;16.80;99.90
21417;DHT22;10869;52.238;10.716;2022-09-13T18:36:42;16.60;99.90
21417;DHT22;10869;52.238;10.716;2022-09-13T18:39:17;16.60;99.90
21417;DHT22;10869;52.238;10.716;2022-09-13T18:41:44;16.50;99.90
21417;DHT22;10869;52.238;10.716;2022-09-13T18:44:11;16.40;99.90
21417;DHT22;10869;52.238;10.716;2022-09-13T18:46:38;16.40;99.90
21417;DHT22;10869;52.238;10.716;2022-09-13T18:49:05;16.40;99.90
21417;DHT22;10869;52.238;10.716;2022-09-13T18:54:52;16.30;99.90
21417;DHT22;10869;52.238;10.716;2022-09-13T19:00:40;16.20;99.90
21417;DHT22;10869;52.238;10.716;2022-09-13T19:03:08;16.20;99.90
21417;DHT22;10869;52.238;10.716;2022-09-13T19:05:35;16.20;99.90
21417;DHT22;10869;52.238;10.716;2022-09-13T19:11:35;16.10;99.90
21417;DHT22;10869;52.238;10.716;2022-09-13T19:17:29;16.10;99.90
21417;DHT22;10869;52.238;10.716;2022-09-13T19:19:56;16.00;99.90
21417;DHT22;10869;52.238;10.716;2022-09-13T19:25:44;15.90;99.90
21417;DHT22;10869;52.238;10.716;2022-09-13T19:31:41;15.80;99.90
21417;DHT22;10869;52.238;10.716;2022-09-13T19:34:10;15.70;99.90
21417;DHT22;10869;52.238;10.716;2022-09-13T19:36:39;15.60;99.90
21417;DHT22;10869;52.238;10.716;2022-09-13T19:39:10;15.60;99.90
21417;DHT22;10869;52.238;10.716;2022-09-13T19:44:58;15.50;99.90
21417;DHT22;10869;52.238;10.716;2022-09-13T19:47:27;15.40;99.90
21417;DHT22;10869;52.238;10.716;2022-09-13T19:49:58;15.40;99.90
21417;DHT22;10869;52.238;10.716;2022-09-13T19:55:46;15.30;99.90
21417;DHT22;10869;52.238;10.716;2022-09-13T19:58:16;15.20;99.90
21417;DHT22;10869;52.238;10.716;2022-09-13T20:00:43;15.10;99.90
21417;DHT22;10869;52.238;10.716;2022-09-13T20:03:09;15.10;99.90
21417;DHT22;10869;52.238;10.716;2022-09-13T20:05:36;15.10;99.90
21417;DHT22;10869;52.238;10.716;2022-09-13T20:08:02;15.10;99.90
21417;DHT22;10869;52.238;10.716;2022-09-13T20:10:28;15.10;99.90
21417;DHT22;10869;52.238;10.716;2022-09-13T20:12:56;15.10;99.90
21417;DHT22;10869;52.238;10.716;2022-09-13T20:15:26;15.10;99.90
21417;DHT22;10869;52.238;10.716;2022-09-13T20:17:53;15.20;99.90
21417;DHT22;10869;52.238;10.716;2022-09-13T20:20:20;15.20;99.90
21417;DHT22;10869;52.238;10.716;2022-09-13T20:22:46;15.20;99.90
21417;DHT22;10869;52.238;10.716;2022-09-13T20:25:12;15.20;99.90
21417;DHT22;10869;52.238;10.716;2022-09-13T20:27:37;15.20;99.90
21417;DHT22;10869;52.238;10.716;2022-09-13T20:30:04;15.30;99.90
21417;DHT22;10869;52.238;10.716;2022-09-13T20:32:30;15.30;99.90
21417;DHT22;10869;52.238;10.716;2022-09-13T20:34:55;15.20;99.90
21417;DHT22;10869;52.238;10.716;2022-09-13T20:37:22;15.20;99.90
21417;DHT22;10869;52.238;10.716;2022-09-13T20:39:48;15.20;99.90
21417;DHT22;10869;52.238;10.716;2022-09-13T20:42:14;15.10;99.90
21417;DHT22;10869;52.238;10.716;2022-09-13T20:44:41;15.10;99.90
21417;DHT22;10869;52.238;10.716;2022-09-13T20:47:07;15.00;99.90
21417;DHT22;10869;52.238;10.716;2022-09-13T20:49:33;15.00;99.90
21417;DHT22;10869;52.238;10.716;2022-09-13T20:51:59;14.90;99.90
21417;DHT22;10869;52.238;10.716;2022-09-13T20:54:25;14.90;99.90
21417;DHT22;10869;52.238;10.716;2022-09-13T20:56:51;14.90;99.90
21417;DHT22;10869;52.238;10.716;2022-09-13T20:59:17;14.80;99.90
21417;DHT22;10869;52.238;10.716;2022-09-13T21:01:42;14.80;99.90
21417;DHT22;10869;52.238;10.716;2022-09-13T21:04:08;14.80;99.90
21417;DHT22;10869;52.238;10.716;2022-09-13T21:06:39;14.70;99.90
21417;DHT22;10869;52.238;10.716;2022-09-13T21:09:26;14.60;99.90
21417;DHT22;10869;52.238;10.716;2022-09-13T21:11:51;14.60;99.90
21417;DHT22;10869;52.238;10.716;2022-09-13T21:14:17;14.60;99.90
21417;DHT22;10869;52.238;10.716;2022-09-13T21:16:43;14.50;99.90
21417;DHT22;10869;52.238;10.716;2022-09-13T21:19:09;14.50;99.90
21417;DHT22;10869;52.238;10.716;2022-09-13T21:21:38;14.40;99.90
21417;DHT22;10869;52.238;10.716;2022-09-13T21:24:05;14.40;99.90
21417;DHT22;10869;52.238;10.716;2022-09-13T21:26:34;14.40;99.90
21417;DHT22;10869;52.238;10.716;2022-09-13T21:29:01;14.30;99.90
21417;DHT22;10869;52.238;10.716;2022-09-13T21:31:29;14.30;99.90
21417;DHT22;10869;52.238;10.716;2022-09-13T21:33:55;14.20;99.90
21417;DHT22;10869;52.238;10.716;2022-09-13T21:36:22;14.20;99.90
21417;DHT22;10869;52.238;10.716;2022-09-13T21:38:49;14.10;99.90
21417;DHT22;10869;52.238;10.716;2022-09-13T21:41:17;14.10;99.90
21417;DHT22;10869;52.238;10.716;2022-09-13T21:43:43;14.00;99.90
21417;DHT22;10869;52.238;10.716;2022-09-13T21:46:14;14.00;99.90
21417;DHT22;10869;52.238;10.716;2022-09-13T21:48:43;13.90;99.90
21417;DHT22;10869;52.238;10.716;2022-09-13T21:51:26;13.90;99.90
21417;DHT22;10869;52.238;10.716;2022-09-13T21:53:54;13.80;99.90
21417;DHT22;10869;52.238;10.716;2022-09-13T21:56:22;13.80;99.90
21417;DHT22;10869;52.238;10.716;2022-09-13T21:58:59;13.70;99.90
21417;DHT22;10869;52.238;10.716;2022-09-13T22:01:35;13.70;99.90
21417;DHT22;10869;52.238;10.716;2022-09-13T22:04:03;13.60;99.90
21417;DHT22;10869;52.238;10.716;2022-09-13T22:06:29;13.60;99.90
21417;DHT22;10869;52.238;10.716;2022-09-13T22:08:57;13.60;99.90
21417;DHT22;10869;52.238;10.716;2022-09-13T22:11:28;13.50;99.90
21417;DHT22;10869;52.238;10.716;2022-09-13T22:13:55;13.50;99.90
21417;DHT22;10869;52.238;10.716;2022-09-13T22:18:52;13.40;99.90
21417;DHT22;10869;52.238;10.716;2022-09-13T22:21:21;13.40;99.90
21417;DHT22;10869;52.238;10.716;2022-09-13T22:23:47;13.40;99.90
21417;DHT22;10869;52.238;10.716;2022-09-13T22:26:19;13.40;99.90
21417;DHT22;10869;52.238;10.716;2022-09-13T22:28:46;13.30;99.90
21417;DHT22;10869;52.238;10.716;2022-09-13T22:31:17;13.30;99.90
21417;DHT22;10869;52.238;10.716;2022-09-13T22:33:44;13.30;99.90
21417;DHT22;10869;52.238;10.716;2022-09-13T22:36:11;13.20;99.90
21417;DHT22;10869;52.238;10.716;2022-09-13T22:38:39;13.20;99.90
21417;DHT22;10869;52.238;10.716;2022-09-13T22:41:08;13.10;99.90
21417;DHT22;10869;52.238;10.716;2022-09-13T22:43:36;13.10;99.90
21417;DHT22;10869;52.238;10.716;2022-09-13T22:46:09;13.10;99.90
21417;DHT22;10869;52.238;10.716;2022-09-13T22:48:35;13.00;99.90
21417;DHT22;10869;52.238;10.716;2022-09-13T22:51:02;13.00;99.90
21417;DHT22;10869;52.238;10.716;2022-09-13T22:53:32;13.00;99.90
21417;DHT22;10869;52.238;10.716;2022-09-13T22:56:09;13.00;99.90
21417;DHT22;10869;52.238;10.716;2022-09-13T22:58:36;13.00;99.90
